createdAt,value
2022-11-03T00:00:43.246Z,61.84
2022-11-03T00:01:45.476Z,61.53
2022-11-03T00:02:47.040Z,61.54
2022-11-03T00:03:48.606Z,61.50
2022-11-03T00:04:50.225Z,61.56
2022-11-03T00:06:06.785Z,61.46
2022-11-03T00:07:08.281Z,61.51
2022-11-03T00:08:09.745Z,61.55
2022-11-03T00:09:15.118Z,61.24
2022-11-03T00:10:16.638Z,61.58
2022-11-03T00:11:18.726Z,61.49
2022-11-03T00:12:20.203Z,61.56
2022-11-03T00:13:21.729Z,61.50
2022-11-03T00:14:23.237Z,61.37
2022-11-03T00:15:24.682Z,61.41
2022-11-03T00:16:26.297Z,61.25
2022-11-03T00:17:27.810Z,61.37
2022-11-03T00:18:29.314Z,61.22
2022-11-03T00:19:30.815Z,61.13
2022-11-03T00:20:32.271Z,61.23
2022-11-03T00:21:33.746Z,61.08
2022-11-03T00:22:35.282Z,61.06
2022-11-03T00:23:38.283Z,61.34
2022-11-03T00:24:39.713Z,61.37
2022-11-03T00:25:41.197Z,61.22
2022-11-03T00:26:42.656Z,61.27
2022-11-03T00:27:44.311Z,61.33
2022-11-03T00:28:46.101Z,61.13
2022-11-03T00:29:47.550Z,61.53
2022-11-03T00:30:49.913Z,61.07
2022-11-03T00:31:52.444Z,61.16
2022-11-03T00:32:55.465Z,61.37
2022-11-03T00:33:57.686Z,61.00
2022-11-03T00:34:59.314Z,61.20
2022-11-03T00:36:01.562Z,61.25
2022-11-03T00:37:04.010Z,61.11
2022-11-03T00:38:06.225Z,61.11
2022-11-03T00:39:08.144Z,61.46
2022-11-03T00:40:11.885Z,61.35
2022-11-03T00:41:14.581Z,61.28
2022-11-03T00:42:16.642Z,61.84
2022-11-03T00:43:19.404Z,61.81
2022-11-03T00:44:21.203Z,61.55
2022-11-03T00:45:23.067Z,61.49
2022-11-03T00:46:24.925Z,61.76
2022-11-03T00:47:26.586Z,61.54
2022-11-03T00:48:31.000Z,61.49
2022-11-03T00:49:33.326Z,61.47
2022-11-03T00:50:35.279Z,61.50
2022-11-03T00:51:37.070Z,61.68
2022-11-03T00:52:38.853Z,61.43
2022-11-03T00:53:46.977Z,61.46
2022-11-03T00:54:54.285Z,61.78
2022-11-03T00:55:57.184Z,61.93
2022-11-03T00:56:59.000Z,61.97
2022-11-03T00:58:00.732Z,61.82
2022-11-03T00:59:02.963Z,61.95
2022-11-03T01:00:05.283Z,61.81
2022-11-03T01:01:07.885Z,61.80
2022-11-03T01:02:09.615Z,61.87
2022-11-03T01:03:11.616Z,62.23
2022-11-03T01:04:32.249Z,62.12
2022-11-03T01:05:52.312Z,62.11
2022-11-03T01:06:54.781Z,61.99
2022-11-03T01:07:56.405Z,62.15
2022-11-03T01:08:59.109Z,62.11
2022-11-03T01:10:02.598Z,62.06
2022-11-03T01:11:23.888Z,62.28
2022-11-03T01:12:26.401Z,62.37
2022-11-03T01:13:28.363Z,62.49
2022-11-03T01:14:32.024Z,62.36
2022-11-03T01:15:33.873Z,62.47
2022-11-03T01:16:35.608Z,62.56
2022-11-03T01:17:37.378Z,62.33
2022-11-03T01:18:39.059Z,62.64
2022-11-03T01:19:41.041Z,62.22
2022-11-03T01:20:42.913Z,62.12
2022-11-03T01:21:45.536Z,62.28
2022-11-03T01:22:47.364Z,62.43
2022-11-03T01:23:49.083Z,62.34
2022-11-03T01:24:51.886Z,62.46
2022-11-03T01:25:53.636Z,62.87
2022-11-03T01:26:55.143Z,62.78
2022-11-03T01:27:56.629Z,62.68
2022-11-03T01:28:58.717Z,62.62
2022-11-03T01:30:00.209Z,62.75
2022-11-03T01:31:08.695Z,63.00
2022-11-03T01:32:10.207Z,62.83
2022-11-03T01:33:11.732Z,62.74
2022-11-03T01:34:16.718Z,62.98
2022-11-03T01:35:18.233Z,63.11
2022-11-03T01:36:19.761Z,62.95
2022-11-03T01:37:21.235Z,63.33
2022-11-03T01:38:22.742Z,63.87
2022-11-03T01:39:24.222Z,64.43
2022-11-03T01:40:25.766Z,64.89
2022-11-03T01:41:27.613Z,65.29
2022-11-03T01:42:29.064Z,65.55
2022-11-03T01:43:31.552Z,65.57
2022-11-03T01:44:36.633Z,66.13
2022-11-03T01:45:38.169Z,66.47
2022-11-03T01:46:51.077Z,66.58
2022-11-03T01:47:52.601Z,66.49
2022-11-03T01:49:06.466Z,66.22
2022-11-03T01:50:14.848Z,66.21
2022-11-03T01:51:16.927Z,66.56
2022-11-03T01:52:20.073Z,66.77
2022-11-03T01:53:21.597Z,66.75
2022-11-03T01:54:23.138Z,66.51
2022-11-03T01:55:25.944Z,66.46
2022-11-03T01:56:27.425Z,66.13
2022-11-03T01:57:39.934Z,65.94
2022-11-03T01:58:41.721Z,66.18
2022-11-03T01:59:43.428Z,66.13
2022-11-03T02:00:45.734Z,65.72
2022-11-03T02:01:47.392Z,65.99
2022-11-03T02:02:48.930Z,65.86
2022-11-03T02:03:54.659Z,65.48
2022-11-03T02:04:56.174Z,66.16
2022-11-03T02:05:57.738Z,66.12
2022-11-03T02:07:05.314Z,65.79
2022-11-03T02:09:15.047Z,65.56
2022-11-03T02:10:16.843Z,65.62
2022-11-03T02:11:36.857Z,65.57
2022-11-03T02:12:38.411Z,65.40
2022-11-03T02:13:40.382Z,65.10
2022-11-03T02:14:45.617Z,65.23
2022-11-03T02:15:51.594Z,64.81
2022-11-03T02:16:53.593Z,65.00
2022-11-03T02:17:55.090Z,65.08
2022-11-03T02:18:56.590Z,64.89
2022-11-03T02:19:59.415Z,64.57
2022-11-03T02:21:05.021Z,64.40
2022-11-03T02:22:25.164Z,64.65
2022-11-03T02:23:28.375Z,64.72
2022-11-03T02:24:36.348Z,64.47
2022-11-03T02:25:37.773Z,64.43
2022-11-03T02:26:39.222Z,64.34
2022-11-03T02:27:40.822Z,64.43
2022-11-03T02:28:42.330Z,64.65
2022-11-03T02:29:43.924Z,64.21
2022-11-03T02:31:05.663Z,64.39
2022-11-03T02:32:12.162Z,64.48
2022-11-03T02:33:13.623Z,64.51
2022-11-03T02:34:18.157Z,64.21
2022-11-03T02:35:33.521Z,64.26
2022-11-03T02:36:43.110Z,64.04
2022-11-03T02:37:46.160Z,64.19
2022-11-03T02:38:49.132Z,64.25
2022-11-03T02:39:56.684Z,64.37
2022-11-03T02:40:58.874Z,64.07
2022-11-03T02:42:00.321Z,64.18
2022-11-03T02:43:02.124Z,64.40
2022-11-03T02:44:04.554Z,64.39
2022-11-03T02:45:07.210Z,64.24
2022-11-03T02:46:08.739Z,64.38
2022-11-03T02:47:10.691Z,64.43
2022-11-03T02:48:12.165Z,64.13
2022-11-03T02:49:13.722Z,64.31
2022-11-03T02:50:15.322Z,64.21
2022-11-03T02:51:16.771Z,64.01
2022-11-03T02:52:36.565Z,64.29
2022-11-03T02:53:39.668Z,64.24
2022-11-03T02:54:42.177Z,64.39
2022-11-03T02:55:49.256Z,64.59
2022-11-03T02:56:52.853Z,64.60
2022-11-03T02:57:58.908Z,64.60
2022-11-03T02:59:04.857Z,64.67
2022-11-03T03:00:06.682Z,64.80
2022-11-03T03:01:14.896Z,64.53
2022-11-03T03:02:18.053Z,64.64
2022-11-03T03:03:22.811Z,64.81
2022-11-03T03:04:27.073Z,64.82
2022-11-03T03:05:29.474Z,64.69
2022-11-03T03:06:35.771Z,64.94
2022-11-03T03:07:37.904Z,64.56
2022-11-03T03:08:41.234Z,64.70
2022-11-03T03:09:51.981Z,64.73
2022-11-03T03:10:53.614Z,64.86
2022-11-03T03:11:55.406Z,64.79
2022-11-03T03:12:57.451Z,64.80
2022-11-03T03:13:58.970Z,64.56
2022-11-03T03:15:00.473Z,64.49
2022-11-03T03:16:06.663Z,64.48
2022-11-03T03:17:13.956Z,64.81
2022-11-03T03:18:18.391Z,64.85
2022-11-03T03:19:26.749Z,65.01
2022-11-03T03:20:31.300Z,65.05
2022-11-03T03:21:37.783Z,65.07
2022-11-03T03:22:53.777Z,65.05
2022-11-03T03:23:57.474Z,64.80
2022-11-03T03:25:08.377Z,64.79
2022-11-03T03:26:13.405Z,64.96
2022-11-03T03:27:14.946Z,65.27
2022-11-03T03:28:39.667Z,65.08
2022-11-03T03:29:43.566Z,65.24
2022-11-03T03:30:45.060Z,65.30
2022-11-03T03:31:48.155Z,65.26
2022-11-03T03:32:49.839Z,65.40
2022-11-03T03:33:56.091Z,65.22
2022-11-03T03:35:07.753Z,65.40
2022-11-03T03:36:09.747Z,65.33
2022-11-03T03:37:11.221Z,65.41
2022-11-03T03:38:13.930Z,65.42
2022-11-03T03:39:15.403Z,65.34
2022-11-03T03:40:18.538Z,65.41
2022-11-03T03:41:22.582Z,65.38
2022-11-03T03:42:24.994Z,65.30
2022-11-03T03:43:26.496Z,64.97
2022-11-03T03:44:28.433Z,64.92
2022-11-03T03:45:30.393Z,64.84
2022-11-03T03:46:33.970Z,65.11
2022-11-03T03:47:35.463Z,64.77
2022-11-03T03:48:36.936Z,65.09
2022-11-03T03:49:38.397Z,64.95
2022-11-03T03:50:40.029Z,65.09
2022-11-03T03:51:41.584Z,65.01
2022-11-03T03:52:43.061Z,65.13
2022-11-03T03:53:44.528Z,65.04
2022-11-03T03:54:45.970Z,64.80
2022-11-03T03:55:49.372Z,64.97
2022-11-03T03:56:53.501Z,64.92
2022-11-03T03:57:57.996Z,64.69
2022-11-03T03:59:01.056Z,64.76
2022-11-03T04:00:02.582Z,65.03
2022-11-03T04:01:13.986Z,64.95
2022-11-03T04:02:15.813Z,64.70
2022-11-03T04:03:18.251Z,64.79
2022-11-03T04:04:19.731Z,64.84
2022-11-03T04:05:21.181Z,64.86
2022-11-03T04:06:22.704Z,65.01
2022-11-03T04:07:43.935Z,64.73
2022-11-03T04:08:45.513Z,64.85
2022-11-03T04:09:46.990Z,64.74
2022-11-03T04:11:07.207Z,64.81
2022-11-03T04:12:27.479Z,64.67
2022-11-03T04:13:47.904Z,64.88
2022-11-03T04:15:07.938Z,64.89
2022-11-03T04:16:28.066Z,65.24
2022-11-03T04:19:13.170Z,65.16
2022-11-03T04:20:33.454Z,65.17
2022-11-03T04:21:53.612Z,64.75
2022-11-03T04:22:55.441Z,65.23
2022-11-03T04:23:57.763Z,64.88
2022-11-03T04:24:59.756Z,64.76
2022-11-03T04:26:01.306Z,65.34
2022-11-03T04:27:05.861Z,65.21
2022-11-03T04:28:13.754Z,65.08
2022-11-03T04:29:15.290Z,65.19
2022-11-03T04:30:17.442Z,65.20
2022-11-03T04:31:19.230Z,65.49
2022-11-03T04:32:20.745Z,65.29
2022-11-03T04:33:22.444Z,65.20
2022-11-03T04:34:24.514Z,65.23
2022-11-03T04:35:26.592Z,65.22
2022-11-03T04:36:28.133Z,65.54
2022-11-03T04:37:29.717Z,65.57
2022-11-03T04:38:31.574Z,65.45
2022-11-03T04:39:33.138Z,65.44
2022-11-03T04:40:34.703Z,65.31
2022-11-03T04:41:37.857Z,65.27
2022-11-03T04:42:39.315Z,65.28
2022-11-03T04:43:40.828Z,65.32
2022-11-03T04:44:42.261Z,65.12
2022-11-03T04:45:44.400Z,65.31
2022-11-03T04:46:46.912Z,65.04
2022-11-03T04:47:48.450Z,65.29
2022-11-03T04:48:49.899Z,65.14
2022-11-03T04:49:51.430Z,65.02
2022-11-03T04:50:53.903Z,65.05
2022-11-03T04:51:55.415Z,64.99
2022-11-03T04:52:59.984Z,64.99
2022-11-03T04:54:06.508Z,65.33
2022-11-03T04:55:10.490Z,65.09
2022-11-03T04:56:13.939Z,65.30
2022-11-03T04:57:15.809Z,65.05
2022-11-03T04:58:18.737Z,65.40
2022-11-03T04:59:20.218Z,65.40
2022-11-03T05:00:21.802Z,65.22
2022-11-03T05:01:29.832Z,65.29
2022-11-03T05:02:31.492Z,64.88
2022-11-03T05:03:33.908Z,64.80
2022-11-03T05:04:35.386Z,65.14
2022-11-03T05:05:36.904Z,65.18
2022-11-03T05:06:38.415Z,65.10
2022-11-03T05:07:40.278Z,65.02
2022-11-03T05:08:41.972Z,65.02
2022-11-03T05:09:43.478Z,65.05
2022-11-03T05:10:45.317Z,65.43
2022-11-03T05:11:46.962Z,65.23
2022-11-03T05:12:48.473Z,65.55
2022-11-03T05:13:50.310Z,65.20
2022-11-03T05:14:56.957Z,65.34
2022-11-03T05:16:01.839Z,65.61
2022-11-03T05:17:03.314Z,65.45
2022-11-03T05:18:13.160Z,65.71
2022-11-03T05:19:34.934Z,65.82
2022-11-03T05:20:36.853Z,65.55
2022-11-03T05:21:38.323Z,65.76
2022-11-03T05:22:39.765Z,65.63
2022-11-03T05:23:42.089Z,65.76
2022-11-03T05:24:43.882Z,65.84
2022-11-03T05:25:45.733Z,66.10
2022-11-03T05:26:47.238Z,65.84
2022-11-03T05:27:48.698Z,66.23
2022-11-03T05:28:51.184Z,65.97
2022-11-03T05:29:55.088Z,66.10
2022-11-03T05:30:59.370Z,65.91
2022-11-03T05:32:00.834Z,65.91
2022-11-03T05:33:02.308Z,65.90
2022-11-03T05:34:22.364Z,65.83
2022-11-03T05:35:23.921Z,65.63
2022-11-03T05:36:26.081Z,65.94
2022-11-03T05:37:27.842Z,65.86
2022-11-03T05:38:30.637Z,65.70
2022-11-03T05:39:35.115Z,65.73
2022-11-03T05:40:36.616Z,65.71
2022-11-03T05:41:38.104Z,65.42
2022-11-03T05:42:39.976Z,65.36
2022-11-03T05:43:41.440Z,65.46
2022-11-03T05:44:43.010Z,65.71
2022-11-03T05:45:44.525Z,65.82
2022-11-03T05:46:46.007Z,65.71
2022-11-03T05:47:47.559Z,65.75
2022-11-03T05:48:49.509Z,65.68
2022-11-03T05:49:51.362Z,65.67
2022-11-03T05:50:52.931Z,65.88
2022-11-03T05:51:54.391Z,65.80
2022-11-03T05:53:18.977Z,65.84
2022-11-03T05:54:25.054Z,66.08
2022-11-03T05:55:33.406Z,66.07
2022-11-03T05:56:34.946Z,65.89
2022-11-03T05:57:36.447Z,66.29
2022-11-03T05:58:41.487Z,66.15
2022-11-03T05:59:43.987Z,66.15
2022-11-03T06:00:48.612Z,66.24
2022-11-03T06:01:50.840Z,66.19
2022-11-03T06:02:52.730Z,66.29
2022-11-03T06:03:54.298Z,66.43
2022-11-03T06:04:55.739Z,66.34
2022-11-03T06:05:57.499Z,66.41
2022-11-03T06:07:00.235Z,66.35
2022-11-03T06:08:03.350Z,66.53
2022-11-03T06:09:16.372Z,66.31
2022-11-03T06:10:21.883Z,66.51
2022-11-03T06:11:28.374Z,66.43
2022-11-03T06:12:30.419Z,66.30
2022-11-03T06:13:35.684Z,66.53
2022-11-03T06:14:37.162Z,66.29
2022-11-03T06:15:38.737Z,66.59
2022-11-03T06:16:40.529Z,66.30
2022-11-03T06:17:42.045Z,66.25
2022-11-03T06:18:43.467Z,66.33
2022-11-03T06:19:45.373Z,66.36
2022-11-03T06:20:56.947Z,66.34
2022-11-03T06:21:59.403Z,66.38
2022-11-03T06:23:00.886Z,65.93
2022-11-03T06:24:02.393Z,66.08
2022-11-03T06:25:12.567Z,66.22
2022-11-03T06:26:16.287Z,66.22
2022-11-03T06:27:22.437Z,66.34
2022-11-03T06:28:25.435Z,66.27
2022-11-03T06:29:26.881Z,66.27
2022-11-03T06:30:28.890Z,66.18
2022-11-03T06:31:32.845Z,66.17
2022-11-03T06:32:34.551Z,66.18
2022-11-03T06:33:36.279Z,65.83
2022-11-03T06:34:40.592Z,65.83
2022-11-03T06:35:43.060Z,65.73
2022-11-03T06:36:44.588Z,66.10
2022-11-03T06:37:46.980Z,65.70
2022-11-03T06:38:53.005Z,65.85
2022-11-03T06:39:57.850Z,65.99
2022-11-03T06:40:59.372Z,66.14
2022-11-03T06:42:05.579Z,66.01
2022-11-03T06:43:14.138Z,65.92
2022-11-03T06:44:28.531Z,66.00
2022-11-03T06:45:30.096Z,66.05
2022-11-03T06:46:31.537Z,66.35
2022-11-03T06:47:33.031Z,66.53
2022-11-03T06:48:34.716Z,67.00
2022-11-03T06:49:36.354Z,67.01
2022-11-03T06:50:42.287Z,66.66
2022-11-03T06:51:46.195Z,66.61
2022-11-03T06:53:50.436Z,66.25
2022-11-03T06:55:01.094Z,66.32
2022-11-03T06:56:02.588Z,66.36
2022-11-03T06:57:06.586Z,66.07
2022-11-03T06:58:12.794Z,65.99
2022-11-03T06:59:14.366Z,66.16
2022-11-03T07:00:35.522Z,65.69
2022-11-03T07:01:37.846Z,65.52
2022-11-03T07:02:59.852Z,65.67
2022-11-03T07:04:02.325Z,65.67
2022-11-03T07:05:06.460Z,65.90
2022-11-03T07:06:10.833Z,65.91
2022-11-03T07:07:12.294Z,66.00
2022-11-03T07:08:16.880Z,66.02
2022-11-03T07:09:22.289Z,66.14
2022-11-03T07:10:27.564Z,66.13
2022-11-03T07:11:35.557Z,66.53
2022-11-03T07:12:37.104Z,66.35
2022-11-03T07:13:38.617Z,66.42
2022-11-03T07:14:40.498Z,66.61
2022-11-03T07:15:42.355Z,66.73
2022-11-03T07:16:44.676Z,66.49
2022-11-03T07:17:46.230Z,66.59
2022-11-03T07:18:47.867Z,66.63
2022-11-03T07:19:49.384Z,66.69
2022-11-03T07:20:51.827Z,66.89
2022-11-03T07:21:56.193Z,67.28
2022-11-03T07:22:57.695Z,67.06
2022-11-03T07:23:59.714Z,67.02
2022-11-03T07:25:01.275Z,66.71
2022-11-03T07:26:02.975Z,66.77
2022-11-03T07:27:19.356Z,66.94
2022-11-03T07:28:22.598Z,66.95
2022-11-03T07:29:25.405Z,67.34
2022-11-03T07:30:29.846Z,67.43
2022-11-03T07:31:31.347Z,66.97
2022-11-03T07:32:33.213Z,67.38
2022-11-03T07:33:34.741Z,67.25
2022-11-03T07:34:36.338Z,67.35
2022-11-03T07:36:13.884Z,66.97
2022-11-03T07:37:06.004Z,66.55
2022-11-03T07:38:14.552Z,67.00
2022-11-03T07:39:16.477Z,66.75
2022-11-03T07:40:27.762Z,66.77
2022-11-03T07:41:32.971Z,66.98
2022-11-03T07:42:36.062Z,66.61
2022-11-03T07:43:38.469Z,66.56
2022-11-03T07:44:40.001Z,66.15
2022-11-03T07:45:45.199Z,66.33
2022-11-03T07:46:46.853Z,66.39
2022-11-03T07:47:48.322Z,66.02
2022-11-03T07:48:50.488Z,65.89
2022-11-03T07:49:52.009Z,66.30
2022-11-03T07:50:54.292Z,65.92
2022-11-03T07:51:59.038Z,66.12
2022-11-03T07:53:00.585Z,65.58
2022-11-03T07:54:13.659Z,65.39
2022-11-03T07:55:15.263Z,65.50
2022-11-03T07:56:20.406Z,65.37
2022-11-03T07:57:27.915Z,65.50
2022-11-03T07:58:34.141Z,65.39
2022-11-03T07:59:39.218Z,65.36
2022-11-03T08:00:40.712Z,65.47
2022-11-03T08:01:48.671Z,65.51
2022-11-03T08:02:51.391Z,65.00
2022-11-03T08:03:53.127Z,64.73
2022-11-03T08:04:54.641Z,64.83
2022-11-03T08:05:56.171Z,64.54
2022-11-03T08:06:57.813Z,64.76
2022-11-03T08:07:59.305Z,64.39
2022-11-03T08:09:00.839Z,64.48
2022-11-03T08:10:02.431Z,64.16
2022-11-03T08:11:04.279Z,64.41
2022-11-03T08:12:05.871Z,64.43
2022-11-03T08:13:07.571Z,64.44
2022-11-03T08:14:10.333Z,64.72
2022-11-03T08:15:11.789Z,64.43
2022-11-03T08:16:13.274Z,64.33
2022-11-03T08:17:14.800Z,64.30
2022-11-03T08:18:16.305Z,64.34
2022-11-03T08:19:17.799Z,64.54
2022-11-03T08:20:19.334Z,64.65
2022-11-03T08:21:20.878Z,64.67
2022-11-03T08:22:25.871Z,64.80
2022-11-03T08:23:27.700Z,64.89
2022-11-03T08:24:29.463Z,65.03
2022-11-03T08:25:30.994Z,64.68
2022-11-03T08:26:32.457Z,65.13
2022-11-03T08:27:34.054Z,64.87
2022-11-03T08:28:35.569Z,64.70
2022-11-03T08:29:37.004Z,64.87
2022-11-03T08:30:38.518Z,64.38
2022-11-03T08:31:39.969Z,64.00
2022-11-03T08:32:41.435Z,64.46
2022-11-03T08:33:42.943Z,64.72
2022-11-03T08:34:44.405Z,63.97
2022-11-03T08:35:48.364Z,63.00
2022-11-03T08:36:49.868Z,63.23
2022-11-03T08:37:51.387Z,62.10
2022-11-03T08:38:52.895Z,61.67
2022-11-03T08:39:54.372Z,60.60
2022-11-03T08:40:56.113Z,60.21
2022-11-03T08:41:57.636Z,60.49
2022-11-03T08:43:03.083Z,58.71
2022-11-03T08:44:04.683Z,59.12
2022-11-03T08:45:06.418Z,58.60
2022-11-03T08:46:15.776Z,58.76
2022-11-03T08:47:18.542Z,58.34
2022-11-03T08:48:20.948Z,58.01
2022-11-03T08:49:22.495Z,57.81
2022-11-03T08:50:24.096Z,58.86
2022-11-03T08:51:25.733Z,59.27
2022-11-03T08:52:27.301Z,59.55
2022-11-03T08:53:29.159Z,58.51
2022-11-03T08:54:30.700Z,58.31
2022-11-03T08:55:32.237Z,57.43
2022-11-03T08:56:33.759Z,57.27
2022-11-03T08:57:35.425Z,56.90
2022-11-03T08:58:36.977Z,56.96
2022-11-03T08:59:38.718Z,57.27
2022-11-03T09:00:41.323Z,57.30
2022-11-03T09:01:43.015Z,57.17
2022-11-03T09:02:45.056Z,57.27
2022-11-03T09:03:46.662Z,57.34
2022-11-03T09:04:48.230Z,57.45
2022-11-03T09:05:49.731Z,56.96
2022-11-03T09:06:51.221Z,57.31
2022-11-03T09:10:38.436Z,57.85
2022-11-03T09:11:43.708Z,57.69
2022-11-03T09:12:45.159Z,57.84
2022-11-03T09:13:46.670Z,57.83
2022-11-03T09:14:48.180Z,57.88
2022-11-03T09:15:49.761Z,57.72
2022-11-03T09:16:51.505Z,58.22
2022-11-03T09:17:53.090Z,58.29
2022-11-03T09:18:54.640Z,58.26
2022-11-03T09:19:56.373Z,58.35
2022-11-03T09:20:57.819Z,58.27
2022-11-03T09:22:00.309Z,58.21
2022-11-03T09:23:01.827Z,58.72
2022-11-03T09:24:03.359Z,59.09
2022-11-03T09:25:05.727Z,59.43
2022-11-03T09:26:07.215Z,59.91
2022-11-03T09:27:08.763Z,60.32
2022-11-03T09:28:10.593Z,60.61
2022-11-03T09:29:12.402Z,59.96
2022-11-03T09:30:14.670Z,59.60
2022-11-03T09:31:16.629Z,60.12
2022-11-03T09:32:22.959Z,60.48
2022-11-03T09:33:25.195Z,59.93
2022-11-03T09:34:26.718Z,60.50
2022-11-03T09:35:28.307Z,60.58
2022-11-03T09:36:29.885Z,60.70
2022-11-03T09:37:31.544Z,60.38
2022-11-03T09:38:33.126Z,60.33
2022-11-03T09:39:34.592Z,60.70
2022-11-03T09:40:36.297Z,60.35
2022-11-03T09:41:58.140Z,61.11
2022-11-03T09:42:59.357Z,60.61
2022-11-03T09:44:00.953Z,60.93
2022-11-03T09:45:02.647Z,61.30
2022-11-03T09:46:04.123Z,61.45
2022-11-03T09:47:05.655Z,61.21
2022-11-03T09:48:10.724Z,61.73
2022-11-03T09:49:15.277Z,61.84
2022-11-03T09:50:17.403Z,61.98
2022-11-03T09:51:19.740Z,61.92
2022-11-03T09:52:22.182Z,61.91
2022-11-03T09:53:23.816Z,62.00
2022-11-03T09:54:26.943Z,61.97
2022-11-03T09:55:28.461Z,61.88
2022-11-03T09:56:30.040Z,62.02
2022-11-03T09:57:31.527Z,62.50
2022-11-03T09:58:33.130Z,62.36
2022-11-03T09:59:34.643Z,62.36
2022-11-03T10:00:36.158Z,62.04
2022-11-03T10:01:37.799Z,62.14
2022-11-03T10:02:43.173Z,62.32
2022-11-03T10:03:44.676Z,62.66
2022-11-03T10:04:46.477Z,62.81
2022-11-03T10:05:48.212Z,62.56
2022-11-03T10:06:49.690Z,62.26
2022-11-03T10:09:01.452Z,62.52
2022-11-03T10:10:03.270Z,62.38
2022-11-03T10:11:06.464Z,62.20
2022-11-03T10:12:08.565Z,62.45
2022-11-03T10:13:13.476Z,62.68
2022-11-03T10:14:15.581Z,62.40
2022-11-03T10:15:17.234Z,62.04
2022-11-03T10:16:18.986Z,62.20
2022-11-03T10:17:21.977Z,62.12
2022-11-03T10:18:23.729Z,62.34
2022-11-03T10:19:25.434Z,62.08
2022-11-03T10:20:28.029Z,62.16
2022-11-03T10:21:36.009Z,61.95
2022-11-03T10:22:41.034Z,62.04
2022-11-03T10:23:42.951Z,62.29
2022-11-03T10:24:44.440Z,62.26
2022-11-03T10:25:46.485Z,62.24
2022-11-03T10:26:48.690Z,62.40
2022-11-03T10:27:50.290Z,62.24
2022-11-03T10:28:59.001Z,62.29
2022-11-03T10:30:07.547Z,62.03
2022-11-03T10:31:20.960Z,61.90
2022-11-03T10:32:29.292Z,62.28
2022-11-03T10:33:30.828Z,62.27
2022-11-03T10:34:35.435Z,62.37
2022-11-03T10:35:36.956Z,62.65
2022-11-03T10:36:38.602Z,62.63
2022-11-03T10:37:40.201Z,62.71
2022-11-03T10:38:42.013Z,63.05
2022-11-03T10:39:44.978Z,63.19
2022-11-03T10:40:48.175Z,63.36
2022-11-03T10:41:59.551Z,63.04
2022-11-03T10:43:01.125Z,63.00
2022-11-03T10:44:08.035Z,62.91
2022-11-03T10:45:09.593Z,63.46
2022-11-03T10:46:29.486Z,63.72
2022-11-03T10:47:35.915Z,63.61
2022-11-03T10:48:37.829Z,63.37
2022-11-03T10:49:43.704Z,63.82
2022-11-03T10:50:45.667Z,63.69
2022-11-03T10:51:47.667Z,63.57
2022-11-03T10:52:49.548Z,63.69
2022-11-03T10:53:51.090Z,63.74
2022-11-03T10:54:53.318Z,63.74
2022-11-03T10:55:55.778Z,64.00
2022-11-03T10:56:57.485Z,64.02
2022-11-03T10:57:59.118Z,64.40
2022-11-03T10:59:00.768Z,64.62
2022-11-03T11:00:02.385Z,64.73
2022-11-03T11:01:04.002Z,64.85
2022-11-03T11:02:16.552Z,65.35
2022-11-03T11:03:20.791Z,65.13
2022-11-03T11:04:22.788Z,65.13
2022-11-03T11:05:24.375Z,65.12
2022-11-03T11:06:26.572Z,65.02
2022-11-03T11:07:33.029Z,65.11
2022-11-03T11:08:34.582Z,65.17
2022-11-03T11:09:36.325Z,65.01
2022-11-03T11:10:37.853Z,65.17
2022-11-03T11:11:39.426Z,65.16
2022-11-03T11:13:00.478Z,64.99
2022-11-03T11:14:20.832Z,64.97
2022-11-03T11:15:38.760Z,65.23
2022-11-03T11:16:47.123Z,65.20
2022-11-03T11:17:50.036Z,65.56
2022-11-03T11:18:54.586Z,65.43
2022-11-03T11:20:18.284Z,65.54
2022-11-03T11:21:19.757Z,65.58
2022-11-03T11:22:22.281Z,65.66
2022-11-03T11:23:30.026Z,66.30
2022-11-03T11:24:43.282Z,66.66
2022-11-03T11:26:03.747Z,66.78
2022-11-03T11:27:24.534Z,66.39
2022-11-03T11:28:26.072Z,66.29
2022-11-03T11:29:30.713Z,66.30
2022-11-03T11:30:35.232Z,66.08
2022-11-03T11:31:37.691Z,66.46
2022-11-03T11:32:39.351Z,66.60
2022-11-03T11:33:40.803Z,66.89
2022-11-03T11:34:42.363Z,67.00
2022-11-03T11:35:43.818Z,66.78
2022-11-03T11:36:54.501Z,67.13
2022-11-03T11:37:56.049Z,67.14
2022-11-03T11:38:57.960Z,67.41
2022-11-03T11:39:59.464Z,67.60
2022-11-03T11:41:00.926Z,67.66
2022-11-03T11:42:14.472Z,67.56
2022-11-03T11:43:19.308Z,67.38
2022-11-03T11:44:39.520Z,67.47
2022-11-03T11:45:59.672Z,67.51
2022-11-03T11:47:01.681Z,67.87
2022-11-03T11:48:16.043Z,67.95
2022-11-03T11:49:20.412Z,67.41
2022-11-03T11:50:25.576Z,67.46
2022-11-03T11:51:27.093Z,67.46
2022-11-03T11:52:28.609Z,67.54
2022-11-03T11:53:40.027Z,67.45
2022-11-03T11:54:41.982Z,67.23
2022-11-03T11:55:44.362Z,66.87
2022-11-03T11:56:46.658Z,66.61
2022-11-03T11:57:48.232Z,66.68
2022-11-03T11:58:55.731Z,66.45
2022-11-03T11:59:57.394Z,66.51
2022-11-03T12:01:00.255Z,66.68
2022-11-03T12:02:01.768Z,66.57
2022-11-03T12:03:03.820Z,66.64
2022-11-03T12:04:08.768Z,66.60
2022-11-03T12:05:18.610Z,66.39
2022-11-03T12:06:31.728Z,66.31
2022-11-03T12:07:33.651Z,66.27
2022-11-03T12:08:35.471Z,66.12
2022-11-03T12:09:37.385Z,66.37
2022-11-03T12:10:38.881Z,66.26
2022-11-03T12:11:47.589Z,66.47
2022-11-03T12:12:49.853Z,66.51
2022-11-03T12:13:52.536Z,66.71
2022-11-03T12:14:53.997Z,66.54
2022-11-03T12:15:56.006Z,66.38
2022-11-03T12:16:57.824Z,66.28
2022-11-03T12:17:59.286Z,66.49
2022-11-03T12:19:26.917Z,66.41
2022-11-03T12:20:34.935Z,66.41
2022-11-03T12:21:48.729Z,66.71
2022-11-03T12:22:50.282Z,66.54
2022-11-03T12:24:06.628Z,66.58
2022-11-03T12:25:28.145Z,66.63
2022-11-03T12:26:29.566Z,66.67
2022-11-03T12:27:31.073Z,66.87
2022-11-03T12:28:33.401Z,66.57
2022-11-03T12:29:47.404Z,66.66
2022-11-03T12:30:48.973Z,66.78
2022-11-03T12:31:50.469Z,66.75
2022-11-03T12:32:53.341Z,66.56
2022-11-03T12:33:55.355Z,66.33
2022-11-03T12:34:56.827Z,66.42
2022-11-03T12:35:58.384Z,66.31
2022-11-03T12:36:59.908Z,66.41
2022-11-03T12:38:01.541Z,66.15
2022-11-03T12:39:03.063Z,66.24
2022-11-03T12:40:04.859Z,66.45
2022-11-03T12:41:21.818Z,66.32
2022-11-03T12:42:25.014Z,66.55
2022-11-03T12:43:26.734Z,66.62
2022-11-03T12:44:28.240Z,66.53
2022-11-03T12:45:29.782Z,66.74
2022-11-03T12:46:31.339Z,66.57
2022-11-03T12:47:32.779Z,66.82
2022-11-03T12:48:34.380Z,66.59
2022-11-03T12:49:36.417Z,66.64
2022-11-03T12:50:39.250Z,66.48
2022-11-03T12:51:40.731Z,66.35
2022-11-03T12:52:42.171Z,66.57
2022-11-03T12:53:43.890Z,66.41
2022-11-03T12:54:45.395Z,66.38
2022-11-03T12:55:46.939Z,66.48
2022-11-03T12:56:48.500Z,66.44
2022-11-03T12:57:50.023Z,66.51
2022-11-03T12:58:51.916Z,66.58
2022-11-03T12:59:53.445Z,66.43
2022-11-03T13:00:56.321Z,66.60
2022-11-03T13:02:00.744Z,66.61
2022-11-03T13:03:02.385Z,66.71
2022-11-03T13:04:06.262Z,66.57
2022-11-03T13:05:07.986Z,66.80
2022-11-03T13:06:11.909Z,66.41
2022-11-03T13:07:13.465Z,66.46
2022-11-03T13:08:14.990Z,66.61
2022-11-03T13:09:16.454Z,66.75
2022-11-03T13:10:18.018Z,66.81
2022-11-03T13:11:38.278Z,67.04
2022-11-03T13:12:41.636Z,66.92
2022-11-03T13:13:43.249Z,66.95
2022-11-03T13:14:46.320Z,66.71
2022-11-03T13:15:50.162Z,66.69
2022-11-03T13:16:51.673Z,66.47
2022-11-03T13:18:12.423Z,66.68
2022-11-03T13:19:14.835Z,66.76
2022-11-03T13:20:16.398Z,66.66
2022-11-03T13:21:17.937Z,66.72
2022-11-03T13:22:19.597Z,67.16
2022-11-03T13:23:22.975Z,66.99
2022-11-03T13:24:24.835Z,67.00
2022-11-03T13:25:26.469Z,67.09
2022-11-03T13:26:27.989Z,66.75
2022-11-03T13:27:29.473Z,66.66
2022-11-03T13:28:31.369Z,66.68
2022-11-03T13:29:35.732Z,66.60
2022-11-03T13:30:37.466Z,66.91
2022-11-03T13:31:38.927Z,67.02
2022-11-03T13:32:40.445Z,67.21
2022-11-03T13:33:41.961Z,67.10
2022-11-03T13:34:43.445Z,67.06
2022-11-03T13:35:44.974Z,66.68
2022-11-03T13:36:46.574Z,66.59
2022-11-03T13:37:48.210Z,66.93
2022-11-03T13:38:49.716Z,66.95
2022-11-03T13:39:51.178Z,66.67
2022-11-03T13:40:57.095Z,66.42
2022-11-03T13:41:59.465Z,66.20
2022-11-03T13:43:01.035Z,66.20
2022-11-03T13:44:02.709Z,66.11
2022-11-03T13:45:04.384Z,66.11
2022-11-03T13:46:06.372Z,66.06
2022-11-03T13:47:11.545Z,65.92
2022-11-03T13:50:07.879Z,65.91
2022-11-03T13:50:57.299Z,65.80
2022-11-03T13:51:58.833Z,66.08